sensor_id;sensor_type;location;lat;lon;timestamp;pressure;altitude;pressure_sealevel;temperature;humidity
51687;BME280;37774;52.192;4.584;2022-07-06T00:00:03;102543.41;;;12.53;100.00
51687;BME280;37774;52.192;4.584;2022-07-06T00:02:30;102475.84;;;11.99;100.00
51687;BME280;37774;52.192;4.584;2022-07-06T00:04:57;102384.16;;;11.60;100.00
51687;BME280;37774;52.192;4.584;2022-07-06T00:07:25;102499.13;;;11.88;100.00
51687;BME280;37774;52.192;4.584;2022-07-06T00:09:52;102250.19;;;10.65;100.00
51687;BME280;37774;52.192;4.584;2022-07-06T00:12:19;102526.56;;;12.24;100.00
51687;BME280;37774;52.192;4.584;2022-07-06T00:14:45;102320.03;;;11.01;100.00
51687;BME280;37774;52.192;4.584;2022-07-06T00:17:12;102537.47;;;12.65;100.00
51687;BME280;37774;52.192;4.584;2022-07-06T00:19:39;102526.78;;;12.45;100.00
51687;BME280;37774;52.192;4.584;2022-07-06T00:22:05;102504.16;;;12.39;100.00
51687;BME280;37774;52.192;4.584;2022-07-06T00:24:34;102343.16;;;11.42;100.00
51687;BME280;37774;52.192;4.584;2022-07-06T00:27:00;102514.66;;;12.45;100.00
51687;BME280;37774;52.192;4.584;2022-07-06T00:29:27;102514.53;;;12.36;100.00
51687;BME280;37774;52.192;4.584;2022-07-06T00:31:55;102255.66;;;10.84;100.00
51687;BME280;37774;52.192;4.584;2022-07-06T00:34:22;102498.69;;;12.19;100.00
51687;BME280;37774;52.192;4.584;2022-07-06T00:36:49;102473.47;;;12.18;100.00
51687;BME280;37774;52.192;4.584;2022-07-06T00:39:16;102485.84;;;12.34;100.00
51687;BME280;37774;52.192;4.584;2022-07-06T00:41:45;102488.38;;;12.28;100.00
51687;BME280;37774;52.192;4.584;2022-07-06T00:44:12;102473.63;;;12.30;100.00
51687;BME280;37774;52.192;4.584;2022-07-06T00:46:39;102454.44;;;12.25;100.00
51687;BME280;37774;52.192;4.584;2022-07-06T00:49:06;102391.97;;;11.60;100.00
51687;BME280;37774;52.192;4.584;2022-07-06T00:51:52;102431.84;;;12.22;100.00
51687;BME280;37774;52.192;4.584;2022-07-06T00:54:19;102346.28;;;11.87;100.00
51687;BME280;37774;52.192;4.584;2022-07-06T00:56:47;102420.56;;;12.23;100.00
51687;BME280;37774;52.192;4.584;2022-07-06T00:59:14;102101.75;;;10.45;100.00
51687;BME280;37774;52.192;4.584;2022-07-06T01:01:41;102384.22;;;12.39;100.00
51687;BME280;37774;52.192;4.584;2022-07-06T01:04:08;102222.28;;;11.18;100.00
51687;BME280;37774;52.192;4.584;2022-07-06T01:06:35;102415.38;;;12.26;100.00
51687;BME280;37774;52.192;4.584;2022-07-06T01:09:03;102394.50;;;12.23;100.00
51687;BME280;37774;52.192;4.584;2022-07-06T01:11:31;102297.09;;;11.38;100.00
51687;BME280;37774;52.192;4.584;2022-07-06T01:14:00;102394.53;;;12.26;100.00
51687;BME280;37774;52.192;4.584;2022-07-06T01:16:26;102312.22;;;11.68;100.00
51687;BME280;37774;52.192;4.584;2022-07-06T01:18:53;102375.00;;;11.92;100.00
51687;BME280;37774;52.192;4.584;2022-07-06T01:21:21;102181.22;;;10.92;100.00
51687;BME280;37774;52.192;4.584;2022-07-06T01:23:49;102356.06;;;12.04;100.00
51687;BME280;37774;52.192;4.584;2022-07-06T01:26:18;102367.31;;;12.03;100.00
51687;BME280;37774;52.192;4.584;2022-07-06T01:28:45;102332.41;;;11.88;100.00
51687;BME280;37774;52.192;4.584;2022-07-06T01:31:15;102091.63;;;10.67;100.00
51687;BME280;37774;52.192;4.584;2022-07-06T01:33:44;102268.78;;;11.64;100.00
51687;BME280;37774;52.192;4.584;2022-07-06T01:36:11;102344.88;;;12.12;100.00
51687;BME280;37774;52.192;4.584;2022-07-06T01:38:49;102332.75;;;12.19;100.00
51687;BME280;37774;52.192;4.584;2022-07-06T01:41:17;102319.78;;;12.24;100.00
51687;BME280;37774;52.192;4.584;2022-07-06T01:43:44;102303.22;;;12.19;100.00
51687;BME280;37774;52.192;4.584;2022-07-06T01:46:11;102286.81;;;12.29;100.00
51687;BME280;37774;52.192;4.584;2022-07-06T01:48:39;102229.91;;;11.83;100.00
51687;BME280;37774;52.192;4.584;2022-07-06T01:51:06;101967.13;;;10.16;100.00
51687;BME280;37774;52.192;4.584;2022-07-06T01:53:34;101791.59;;;9.58;100.00
51687;BME280;37774;52.192;4.584;2022-07-06T01:56:02;101997.91;;;10.55;100.00
51687;BME280;37774;52.192;4.584;2022-07-06T01:58:29;102073.41;;;11.53;100.00
51687;BME280;37774;52.192;4.584;2022-07-06T02:00:56;102245.97;;;12.31;100.00
51687;BME280;37774;52.192;4.584;2022-07-06T02:03:22;102245.97;;;12.28;100.00
51687;BME280;37774;52.192;4.584;2022-07-06T02:05:49;102202.44;;;12.18;100.00
51687;BME280;37774;52.192;4.584;2022-07-06T02:08:16;102188.56;;;12.19;100.00
51687;BME280;37774;52.192;4.584;2022-07-06T02:10:43;102223.34;;;12.24;100.00
51687;BME280;37774;52.192;4.584;2022-07-06T02:13:11;102176.25;;;12.01;100.00
51687;BME280;37774;52.192;4.584;2022-07-06T02:15:38;102225.22;;;12.44;100.00
51687;BME280;37774;52.192;4.584;2022-07-06T02:18:04;102210.34;;;12.25;100.00
51687;BME280;37774;52.192;4.584;2022-07-06T02:20:31;101894.06;;;10.69;100.00
51687;BME280;37774;52.192;4.584;2022-07-06T02:22:58;102180.88;;;12.39;100.00
51687;BME280;37774;52.192;4.584;2022-07-06T02:25:25;102236.72;;;12.75;100.00
51687;BME280;37774;52.192;4.584;2022-07-06T02:27:51;102233.25;;;12.79;100.00
51687;BME280;37774;52.192;4.584;2022-07-06T02:30:20;102018.75;;;11.55;100.00
51687;BME280;37774;52.192;4.584;2022-07-06T02:32:47;101915.88;;;10.86;100.00
51687;BME280;37774;52.192;4.584;2022-07-06T02:35:13;102041.25;;;11.47;100.00
51687;BME280;37774;52.192;4.584;2022-07-06T02:37:40;102238.50;;;12.85;100.00
51687;BME280;37774;52.192;4.584;2022-07-06T02:40:08;101860.28;;;10.70;100.00
51687;BME280;37774;52.192;4.584;2022-07-06T02:42:35;102190.50;;;12.46;100.00
51687;BME280;37774;52.192;4.584;2022-07-06T02:45:03;102260.38;;;13.12;100.00
51687;BME280;37774;52.192;4.584;2022-07-06T02:47:31;102262.13;;;13.09;100.00
51687;BME280;37774;52.192;4.584;2022-07-06T02:49:58;102285.66;;;13.21;100.00
51687;BME280;37774;52.192;4.584;2022-07-06T02:52:25;102290.06;;;13.27;100.00
51687;BME280;37774;52.192;4.584;2022-07-06T02:54:52;102289.22;;;13.34;100.00
51687;BME280;37774;52.192;4.584;2022-07-06T02:57:19;102303.16;;;13.39;100.00
51687;BME280;37774;52.192;4.584;2022-07-06T02:59:45;102056.31;;;11.91;100.00
51687;BME280;37774;52.192;4.584;2022-07-06T03:02:15;102339.78;;;13.46;100.00
51687;BME280;37774;52.192;4.584;2022-07-06T03:04:43;102339.81;;;13.55;100.00
51687;BME280;37774;52.192;4.584;2022-07-06T03:07:10;102327.50;;;13.32;100.00
51687;BME280;37774;52.192;4.584;2022-07-06T03:09:36;102287.41;;;13.24;100.00
51687;BME280;37774;52.192;4.584;2022-07-06T03:12:04;102217.66;;;12.85;100.00
51687;BME280;37774;52.192;4.584;2022-07-06T03:14:31;102357.25;;;13.62;100.00
51687;BME280;37774;52.192;4.584;2022-07-06T03:16:57;102207.06;;;12.57;100.00
51687;BME280;37774;52.192;4.584;2022-07-06T03:19:24;102374.69;;;13.69;100.00
51687;BME280;37774;52.192;4.584;2022-07-06T03:21:52;102144.38;;;12.36;100.00
51687;BME280;37774;52.192;4.584;2022-07-06T03:24:19;102378.16;;;13.70;100.00
51687;BME280;37774;52.192;4.584;2022-07-06T03:26:46;102126.88;;;12.19;100.00
51687;BME280;37774;52.192;4.584;2022-07-06T03:29:13;102393.91;;;13.87;100.00
51687;BME280;37774;52.192;4.584;2022-07-06T03:31:40;102381.66;;;13.70;100.00
51687;BME280;37774;52.192;4.584;2022-07-06T03:34:07;102154.78;;;12.34;100.00
51687;BME280;37774;52.192;4.584;2022-07-06T03:36:34;102368.56;;;13.63;100.00
51687;BME280;37774;52.192;4.584;2022-07-06T03:39:02;102433.19;;;14.04;100.00
51687;BME280;37774;52.192;4.584;2022-07-06T03:41:29;102383.44;;;13.84;100.00
51687;BME280;37774;52.192;4.584;2022-07-06T03:43:55;102095.38;;;11.88;100.00
51687;BME280;37774;52.192;4.584;2022-07-06T03:46:22;102434.88;;;13.94;100.00
51687;BME280;37774;52.192;4.584;2022-07-06T03:48:49;102451.50;;;14.18;100.00
51687;BME280;37774;52.192;4.584;2022-07-06T03:51:15;102275.16;;;13.03;100.00
51687;BME280;37774;52.192;4.584;2022-07-06T03:53:42;102420.94;;;13.89;100.00
51687;BME280;37774;52.192;4.584;2022-07-06T03:56:11;102418.34;;;13.91;100.00
51687;BME280;37774;52.192;4.584;2022-07-06T03:58:56;102451.47;;;14.02;100.00
51687;BME280;37774;52.192;4.584;2022-07-06T04:01:24;102467.22;;;14.27;100.00
51687;BME280;37774;52.192;4.584;2022-07-06T04:03:51;102354.66;;;13.70;100.00
51687;BME280;37774;52.192;4.584;2022-07-06T04:06:20;102462.00;;;14.27;100.00
51687;BME280;37774;52.192;4.584;2022-07-06T04:08:47;102461.97;;;14.21;100.00
51687;BME280;37774;52.192;4.584;2022-07-06T04:11:15;102510.00;;;14.39;100.00
51687;BME280;37774;52.192;4.584;2022-07-06T04:13:42;102321.28;;;13.14;100.00
51687;BME280;37774;52.192;4.584;2022-07-06T04:16:09;102129.53;;;12.24;100.00
51687;BME280;37774;52.192;4.584;2022-07-06T04:18:36;102446.28;;;14.21;100.00
51687;BME280;37774;52.192;4.584;2022-07-06T04:21:03;102481.25;;;14.53;100.00
51687;BME280;37774;52.192;4.584;2022-07-06T04:23:30;102477.78;;;14.65;100.00
51687;BME280;37774;52.192;4.584;2022-07-06T04:25:57;102455.97;;;14.55;100.00
51687;BME280;37774;52.192;4.584;2022-07-06T04:28:25;102476.03;;;14.62;100.00
51687;BME280;37774;52.192;4.584;2022-07-06T04:30:52;102476.94;;;14.73;100.00
51687;BME280;37774;52.192;4.584;2022-07-06T04:33:18;102483.03;;;14.61;100.00
51687;BME280;37774;52.192;4.584;2022-07-06T04:35:45;102500.47;;;14.59;100.00
51687;BME280;37774;52.192;4.584;2022-07-06T04:38:12;102501.31;;;14.54;100.00
51687;BME280;37774;52.192;4.584;2022-07-06T04:40:39;102296.19;;;13.35;100.00
51687;BME280;37774;52.192;4.584;2022-07-06T04:43:06;102502.22;;;14.64;100.00
51687;BME280;37774;52.192;4.584;2022-07-06T04:45:34;102503.97;;;14.65;100.00
51687;BME280;37774;52.192;4.584;2022-07-06T04:48:01;102299.75;;;13.50;100.00
51687;BME280;37774;52.192;4.584;2022-07-06T04:50:28;102484.75;;;14.59;100.00
51687;BME280;37774;52.192;4.584;2022-07-06T04:52:55;102486.56;;;14.76;100.00
51687;BME280;37774;52.192;4.584;2022-07-06T04:55:22;102213.38;;;13.03;100.00
51687;BME280;37774;52.192;4.584;2022-07-06T04:57:49;102274.53;;;13.63;100.00
51687;BME280;37774;52.192;4.584;2022-07-06T05:00:17;102526.72;;;15.12;100.00
51687;BME280;37774;52.192;4.584;2022-07-06T05:02:45;102536.31;;;15.04;100.00
51687;BME280;37774;52.192;4.584;2022-07-06T05:05:12;102534.56;;;15.12;100.00
51687;BME280;37774;52.192;4.584;2022-07-06T05:07:38;102542.44;;;15.06;100.00
51687;BME280;37774;52.192;4.584;2022-07-06T05:10:08;102572.09;;;15.17;100.00
51687;BME280;37774;52.192;4.584;2022-07-06T05:12:36;102535.44;;;15.14;100.00
51687;BME280;37774;52.192;4.584;2022-07-06T05:15:03;102550.28;;;15.39;100.00
51687;BME280;37774;52.192;4.584;2022-07-06T05:17:30;102476.09;;;14.92;100.00
51687;BME280;37774;52.192;4.584;2022-07-06T05:19:58;102578.22;;;15.52;100.00
51687;BME280;37774;52.192;4.584;2022-07-06T05:22:25;102244.03;;;13.55;100.00
51687;BME280;37774;52.192;4.584;2022-07-06T05:24:52;102441.19;;;14.89;100.00
51687;BME280;37774;52.192;4.584;2022-07-06T05:27:19;102573.88;;;15.62;100.00
51687;BME280;37774;52.192;4.584;2022-07-06T05:29:45;102248.41;;;13.63;100.00
51687;BME280;37774;52.192;4.584;2022-07-06T05:32:12;102249.28;;;13.63;100.00
51687;BME280;37774;52.192;4.584;2022-07-06T05:34:39;102599.19;;;16.02;100.00
51687;BME280;37774;52.192;4.584;2022-07-06T05:37:07;102469.09;;;15.32;100.00
51687;BME280;37774;52.192;4.584;2022-07-06T05:39:34;102382.72;;;15.06;100.00
51687;BME280;37774;52.192;4.584;2022-07-06T05:42:01;102612.13;;;16.56;100.00
51687;BME280;37774;52.192;4.584;2022-07-06T05:44:27;102441.06;;;15.73;100.00
51687;BME280;37774;52.192;4.584;2022-07-06T05:46:54;102622.50;;;16.81;100.00
51687;BME280;37774;52.192;4.584;2022-07-06T05:49:41;102612.91;;;16.69;100.00
51687;BME280;37774;52.192;4.584;2022-07-06T05:52:27;102523.88;;;16.35;100.00
51687;BME280;37774;52.192;4.584;2022-07-06T05:54:53;102628.53;;;17.03;100.00
51687;BME280;37774;52.192;4.584;2022-07-06T05:57:20;102534.19;;;16.66;100.00
51687;BME280;37774;52.192;4.584;2022-07-06T05:59:47;102623.06;;;17.30;100.00
51687;BME280;37774;52.192;4.584;2022-07-06T06:02:14;102622.97;;;17.42;100.00
51687;BME280;37774;52.192;4.584;2022-07-06T06:04:41;102609.00;;;17.37;100.00
51687;BME280;37774;52.192;4.584;2022-07-06T06:07:08;102594.03;;;17.51;100.00
51687;BME280;37774;52.192;4.584;2022-07-06T06:09:36;102634.13;;;17.74;100.00
51687;BME280;37774;52.192;4.584;2022-07-06T06:12:03;102566.84;;;17.52;100.00
51687;BME280;37774;52.192;4.584;2022-07-06T06:14:30;102632.34;;;17.77;100.00
51687;BME280;37774;52.192;4.584;2022-07-06T06:16:57;102479.66;;;17.07;100.00
51687;BME280;37774;52.192;4.584;2022-07-06T06:19:24;102635.81;;;17.81;100.00
51687;BME280;37774;52.192;4.584;2022-07-06T06:21:51;102365.56;;;16.38;100.00
51687;BME280;37774;52.192;4.584;2022-07-06T06:24:18;102624.25;;;17.98;100.00
51687;BME280;37774;52.192;4.584;2022-07-06T06:26:46;102514.16;;;17.63;100.00
51687;BME280;37774;52.192;4.584;2022-07-06T06:29:13;102601.34;;;18.10;100.00
51687;BME280;37774;52.192;4.584;2022-07-06T06:31:39;102637.19;;;18.21;100.00
51687;BME280;37774;52.192;4.584;2022-07-06T06:34:06;102396.88;;;16.62;100.00
51687;BME280;37774;52.192;4.584;2022-07-06T06:36:33;102649.34;;;18.33;100.00
51687;BME280;37774;52.192;4.584;2022-07-06T06:38:59;102653.72;;;18.32;100.00
51687;BME280;37774;52.192;4.584;2022-07-06T06:41:27;102666.31;;;18.82;100.00
51687;BME280;37774;52.192;4.584;2022-07-06T06:43:55;102496.69;;;17.59;100.00
51687;BME280;37774;52.192;4.584;2022-07-06T06:46:22;102571.13;;;18.43;100.00
51687;BME280;37774;52.192;4.584;2022-07-06T06:48:48;102635.88;;;18.58;100.00
51687;BME280;37774;52.192;4.584;2022-07-06T06:51:15;102531.56;;;18.49;100.00
51687;BME280;37774;52.192;4.584;2022-07-06T06:53:42;102671.44;;;18.91;100.00
51687;BME280;37774;52.192;4.584;2022-07-06T06:56:09;102621.34;;;18.97;100.00
51687;BME280;37774;52.192;4.584;2022-07-06T06:58:36;102643.44;;;18.84;100.00
51687;BME280;37774;52.192;4.584;2022-07-06T07:01:04;102661.03;;;18.82;100.00
51687;BME280;37774;52.192;4.584;2022-07-06T07:03:31;102675.06;;;18.82;100.00
51687;BME280;37774;52.192;4.584;2022-07-06T07:05:58;102529.59;;;17.96;100.00
51687;BME280;37774;52.192;4.584;2022-07-06T07:08:24;102681.75;;;19.10;100.00
51687;BME280;37774;52.192;4.584;2022-07-06T07:10:51;102677.50;;;19.00;100.00
51687;BME280;37774;52.192;4.584;2022-07-06T07:13:18;102674.00;;;19.01;100.00
51687;BME280;37774;52.192;4.584;2022-07-06T07:15:45;102673.47;;;19.36;100.00
51687;BME280;37774;52.192;4.584;2022-07-06T07:18:13;102361.09;;;17.41;100.00
51687;BME280;37774;52.192;4.584;2022-07-06T07:20:39;102601.88;;;19.08;100.00
51687;BME280;37774;52.192;4.584;2022-07-06T07:23:06;102679.03;;;19.74;100.00
51687;BME280;37774;52.192;4.584;2022-07-06T07:25:33;102656.03;;;19.81;100.00
51687;BME280;37774;52.192;4.584;2022-07-06T07:28:00;102650.03;;;19.74;100.00
51687;BME280;37774;52.192;4.584;2022-07-06T07:30:27;102686.84;;;19.79;100.00
51687;BME280;37774;52.192;4.584;2022-07-06T07:32:53;102678.34;;;20.13;100.00
51687;BME280;37774;52.192;4.584;2022-07-06T07:35:23;102649.84;;;19.83;100.00
51687;BME280;37774;52.192;4.584;2022-07-06T07:37:49;102684.94;;;19.87;100.00
51687;BME280;37774;52.192;4.584;2022-07-06T07:40:17;102649.31;;;20.14;100.00
51687;BME280;37774;52.192;4.584;2022-07-06T07:42:43;102661.41;;;20.26;100.00
51687;BME280;37774;52.192;4.584;2022-07-06T07:45:10;102668.59;;;20.62;100.00
51687;BME280;37774;52.192;4.584;2022-07-06T07:47:38;102572.41;;;19.86;100.00
51687;BME280;37774;52.192;4.584;2022-07-06T07:50:06;102695.66;;;20.29;100.00
51687;BME280;37774;52.192;4.584;2022-07-06T07:52:34;102677.63;;;20.52;100.00
51687;BME280;37774;52.192;4.584;2022-07-06T07:55:01;102674.69;;;20.66;100.00
51687;BME280;37774;52.192;4.584;2022-07-06T07:57:27;102640.47;;;20.17;100.00
51687;BME280;37774;52.192;4.584;2022-07-06T07:59:54;102621.81;;;20.26;100.00
51687;BME280;37774;52.192;4.584;2022-07-06T08:02:21;102648.56;;;20.53;100.00
51687;BME280;37774;52.192;4.584;2022-07-06T08:04:48;102662.91;;;20.38;100.00
51687;BME280;37774;52.192;4.584;2022-07-06T08:07:14;102650.94;;;20.66;100.00
51687;BME280;37774;52.192;4.584;2022-07-06T08:09:43;102656.41;;;20.55;100.00
51687;BME280;37774;52.192;4.584;2022-07-06T08:12:10;102666.84;;;20.63;100.00
51687;BME280;37774;52.192;4.584;2022-07-06T08:14:36;102651.34;;;20.46;100.00
51687;BME280;37774;52.192;4.584;2022-07-06T08:17:04;102646.25;;;20.80;100.00
51687;BME280;37774;52.192;4.584;2022-07-06T08:19:30;102643.47;;;21.26;100.00
51687;BME280;37774;52.192;4.584;2022-07-06T08:21:57;102643.63;;;21.18;100.00
51687;BME280;37774;52.192;4.584;2022-07-06T08:24:24;102635.09;;;21.43;100.00
51687;BME280;37774;52.192;4.584;2022-07-06T08:26:52;102600.53;;;21.14;100.00
51687;BME280;37774;52.192;4.584;2022-07-06T08:29:19;102603.19;;;21.85;100.00
51687;BME280;37774;52.192;4.584;2022-07-06T08:31:46;102606.00;;;21.79;100.00
51687;BME280;37774;52.192;4.584;2022-07-06T08:34:12;102557.75;;;21.35;100.00
51687;BME280;37774;52.192;4.584;2022-07-06T08:36:39;102622.63;;;22.16;100.00
51687;BME280;37774;52.192;4.584;2022-07-06T08:39:06;102533.78;;;21.41;100.00
51687;BME280;37774;52.192;4.584;2022-07-06T08:41:34;102601.53;;;21.81;100.00
51687;BME280;37774;52.192;4.584;2022-07-06T08:44:04;102446.81;;;20.97;100.00
51687;BME280;37774;52.192;4.584;2022-07-06T08:46:33;102557.56;;;21.41;100.00
51687;BME280;37774;52.192;4.584;2022-07-06T08:49:01;102613.91;;;22.12;100.00
51687;BME280;37774;52.192;4.584;2022-07-06T08:51:28;102589.50;;;21.69;100.00
51687;BME280;37774;52.192;4.584;2022-07-06T08:53:55;102568.47;;;21.28;100.00
51687;BME280;37774;52.192;4.584;2022-07-06T08:56:22;102616.13;;;21.63;100.00
51687;BME280;37774;52.192;4.584;2022-07-06T08:58:49;102628.97;;;21.41;100.00
51687;BME280;37774;52.192;4.584;2022-07-06T09:01:18;102556.63;;;21.09;100.00
51687;BME280;37774;52.192;4.584;2022-07-06T09:03:49;102620.22;;;21.75;100.00
51687;BME280;37774;52.192;4.584;2022-07-06T09:06:16;102627.75;;;21.54;100.00
51687;BME280;37774;52.192;4.584;2022-07-06T09:08:46;102621.00;;;21.79;100.00
51687;BME280;37774;52.192;4.584;2022-07-06T09:11:14;102567.78;;;20.84;100.00
51687;BME280;37774;52.192;4.584;2022-07-06T09:13:41;102638.56;;;21.45;100.00
51687;BME280;37774;52.192;4.584;2022-07-06T09:16:13;102445.03;;;20.23;100.00
51687;BME280;37774;52.192;4.584;2022-07-06T09:21:10;102480.91;;;21.06;100.00
51687;BME280;37774;52.192;4.584;2022-07-06T09:23:37;102628.81;;;21.83;100.00
51687;BME280;37774;52.192;4.584;2022-07-06T09:26:05;102636.13;;;21.37;100.00
51687;BME280;37774;52.192;4.584;2022-07-06T09:28:40;102631.16;;;21.94;100.00
51687;BME280;37774;52.192;4.584;2022-07-06T09:31:08;102636.16;;;22.05;100.00
51687;BME280;37774;52.192;4.584;2022-07-06T09:33:35;102597.50;;;21.99;100.00
51687;BME280;37774;52.192;4.584;2022-07-06T09:36:04;102593.25;;;21.59;100.00
51687;BME280;37774;52.192;4.584;2022-07-06T09:38:32;102646.06;;;22.30;100.00
51687;BME280;37774;52.192;4.584;2022-07-06T09:40:59;102635.25;;;22.38;100.00
51687;BME280;37774;52.192;4.584;2022-07-06T09:43:28;102643.31;;;22.01;100.00
51687;BME280;37774;52.192;4.584;2022-07-06T09:45:56;102639.59;;;22.40;100.00
51687;BME280;37774;52.192;4.584;2022-07-06T09:48:24;102641.28;;;22.43;100.00
51687;BME280;37774;52.192;4.584;2022-07-06T09:50:53;102632.22;;;21.88;100.00
51687;BME280;37774;52.192;4.584;2022-07-06T09:53:23;102632.38;;;22.14;100.00
51687;BME280;37774;52.192;4.584;2022-07-06T09:55:51;102635.66;;;22.24;100.00
51687;BME280;37774;52.192;4.584;2022-07-06T09:58:19;102570.81;;;21.76;98.74
51687;BME280;37774;52.192;4.584;2022-07-06T10:00:47;102625.50;;;22.08;97.68
51687;BME280;37774;52.192;4.584;2022-07-06T10:03:16;102624.44;;;22.75;96.16
51687;BME280;37774;52.192;4.584;2022-07-06T10:05:45;102637.19;;;22.93;99.39
51687;BME280;37774;52.192;4.584;2022-07-06T10:08:13;102308.56;;;20.27;93.15
51687;BME280;37774;52.192;4.584;2022-07-06T10:10:43;102549.06;;;21.63;95.58
51687;BME280;37774;52.192;4.584;2022-07-06T10:13:11;102631.41;;;22.50;89.95
51687;BME280;37774;52.192;4.584;2022-07-06T10:15:39;102647.75;;;22.64;93.04
51687;BME280;37774;52.192;4.584;2022-07-06T10:18:08;102429.03;;;21.68;95.37
51687;BME280;37774;52.192;4.584;2022-07-06T10:20:37;102628.28;;;22.95;92.06
51687;BME280;37774;52.192;4.584;2022-07-06T10:23:05;102605.97;;;22.74;93.13
51687;BME280;37774;52.192;4.584;2022-07-06T10:25:33;102615.38;;;23.40;90.37
51687;BME280;37774;52.192;4.584;2022-07-06T10:28:03;102578.34;;;22.81;90.45
51687;BME280;37774;52.192;4.584;2022-07-06T10:30:39;102578.16;;;23.14;87.53
51687;BME280;37774;52.192;4.584;2022-07-06T10:33:06;102457.00;;;22.64;89.50
51687;BME280;37774;52.192;4.584;2022-07-06T10:35:34;102421.09;;;23.08;86.52
51687;BME280;37774;52.192;4.584;2022-07-06T10:38:05;102515.13;;;23.23;81.50
51687;BME280;37774;52.192;4.584;2022-07-06T10:40:32;102407.13;;;22.77;86.81
51687;BME280;37774;52.192;4.584;2022-07-06T10:43:18;102607.31;;;23.43;86.57
51687;BME280;37774;52.192;4.584;2022-07-06T10:45:52;102532.44;;;23.08;85.38
51687;BME280;37774;52.192;4.584;2022-07-06T10:48:20;102593.94;;;23.71;86.90
51687;BME280;37774;52.192;4.584;2022-07-06T10:50:50;102507.06;;;23.76;87.39
51687;BME280;37774;52.192;4.584;2022-07-06T10:53:20;102500.44;;;23.88;85.07
51687;BME280;37774;52.192;4.584;2022-07-06T10:55:49;102465.63;;;23.23;87.15
51687;BME280;37774;52.192;4.584;2022-07-06T10:58:40;102585.91;;;23.73;86.17
51687;BME280;37774;52.192;4.584;2022-07-06T11:01:08;102350.97;;;22.39;86.69
51687;BME280;37774;52.192;4.584;2022-07-06T11:03:37;102360.81;;;22.35;84.04
51687;BME280;37774;52.192;4.584;2022-07-06T11:06:09;102404.63;;;22.45;85.45
51687;BME280;37774;52.192;4.584;2022-07-06T11:11:25;102600.78;;;24.04;88.65
51687;BME280;37774;52.192;4.584;2022-07-06T11:13:59;102568.03;;;24.03;85.62
51687;BME280;37774;52.192;4.584;2022-07-06T11:16:27;102578.09;;;24.65;85.73
51687;BME280;37774;52.192;4.584;2022-07-06T11:19:07;102361.63;;;23.15;84.22
51687;BME280;37774;52.192;4.584;2022-07-06T11:24:24;102505.66;;;24.38;85.90
51687;BME280;37774;52.192;4.584;2022-07-06T11:26:56;102551.59;;;24.86;87.55
51687;BME280;37774;52.192;4.584;2022-07-06T11:29:26;102571.63;;;24.50;91.21
51687;BME280;37774;52.192;4.584;2022-07-06T11:31:54;102404.16;;;23.83;88.61
51687;BME280;37774;52.192;4.584;2022-07-06T11:34:22;102556.03;;;25.07;87.84
51687;BME280;37774;52.192;4.584;2022-07-06T11:36:54;102538.47;;;25.46;82.73
51687;BME280;37774;52.192;4.584;2022-07-06T11:39:21;102534.16;;;24.56;83.72
51687;BME280;37774;52.192;4.584;2022-07-06T11:41:48;102543.25;;;24.73;83.70
51687;BME280;37774;52.192;4.584;2022-07-06T11:44:15;102437.53;;;24.14;86.41
51687;BME280;37774;52.192;4.584;2022-07-06T11:46:43;102548.06;;;24.63;83.30
51687;BME280;37774;52.192;4.584;2022-07-06T11:49:10;102536.09;;;25.18;80.50
51687;BME280;37774;52.192;4.584;2022-07-06T11:51:38;102350.06;;;23.87;82.26
51687;BME280;37774;52.192;4.584;2022-07-06T11:54:09;102542.75;;;25.28;79.16
51687;BME280;37774;52.192;4.584;2022-07-06T11:56:36;102543.72;;;25.48;77.38
51687;BME280;37774;52.192;4.584;2022-07-06T11:59:04;102347.00;;;24.62;77.39
51687;BME280;37774;52.192;4.584;2022-07-06T12:01:31;102238.22;;;23.52;80.32
51687;BME280;37774;52.192;4.584;2022-07-06T12:04:00;102553.19;;;25.33;80.63
51687;BME280;37774;52.192;4.584;2022-07-06T12:06:29;102564.75;;;24.89;80.12
51687;BME280;37774;52.192;4.584;2022-07-06T12:08:58;102418.22;;;23.87;79.41
51687;BME280;37774;52.192;4.584;2022-07-06T12:11:27;102533.00;;;24.63;80.49
51687;BME280;37774;52.192;4.584;2022-07-06T12:13:56;102554.13;;;24.67;87.53
51687;BME280;37774;52.192;4.584;2022-07-06T12:16:29;102492.38;;;24.60;86.73
51687;BME280;37774;52.192;4.584;2022-07-06T12:18:56;102546.41;;;24.60;85.23
51687;BME280;37774;52.192;4.584;2022-07-06T12:21:25;102574.00;;;24.10;87.45
51687;BME280;37774;52.192;4.584;2022-07-06T12:23:53;102546.44;;;23.89;89.45
51687;BME280;37774;52.192;4.584;2022-07-06T12:26:22;102534.38;;;24.28;93.01
51687;BME280;37774;52.192;4.584;2022-07-06T12:29:00;102440.03;;;23.47;93.47
51687;BME280;37774;52.192;4.584;2022-07-06T12:31:34;102483.19;;;23.53;94.13
51687;BME280;37774;52.192;4.584;2022-07-06T12:34:01;102549.22;;;23.84;93.81
51687;BME280;37774;52.192;4.584;2022-07-06T12:36:30;102570.66;;;24.05;94.23
51687;BME280;37774;52.192;4.584;2022-07-06T12:38:57;102549.09;;;24.13;96.55
51687;BME280;37774;52.192;4.584;2022-07-06T12:41:30;102553.44;;;23.91;98.94
51687;BME280;37774;52.192;4.584;2022-07-06T12:44:03;102548.03;;;23.44;98.49
51687;BME280;37774;52.192;4.584;2022-07-06T12:46:32;102547.00;;;23.48;98.69
51687;BME280;37774;52.192;4.584;2022-07-06T12:49:02;102548.25;;;23.38;100.00
51687;BME280;37774;52.192;4.584;2022-07-06T12:51:48;102348.72;;;22.26;100.00
51687;BME280;37774;52.192;4.584;2022-07-06T12:54:15;102555.69;;;23.77;100.00